首页
METAR-TAF:

METAR-TAF

机场 :

新奥尔良, 路易斯安那州, 美国

纬度: 30-02-58N, 经度: 090-01-44W, 海拔: 2米

当前天气观测

该预报发布于59分钟前的03:53 UTC
风速3节,风向东北
温度 14°C
湿度 88%
气压 1017 hPa
能見度: 16.1公里
阴天层高于800英尺

METAR: KNEW 170353Z AUTO 05003KT 10SM OVC008 14/12 A3004 RMK AO2 CIG 005V012 SLP166 T01440122

时间: 22:52 (04:52 UTC)

预报

该预报发布于5小时和18分钟前的23:34 UTC
预报有效从17日的 00点(UTC)到 17日的 24点(UTC)
风速6节,风向北转东北
能見度: 10公里
阴天层高于700英尺
从 17日的 0800点(UTC)
风速节,风向
能見度: 1.6公里
多云层高于300英尺
轻雾
从 17日的 0900点(UTC)
风速节,风向
能見度: 0.4公里
阴天层高于300英尺
从 17日的 1300点(UTC)
风速3节,风向多变
能見度: 3.2公里
阴天层高于300英尺
轻雾
从 17日的 2000点(UTC)
风速4节,风向多变
能見度: 10公里
多云层高于800英尺

TAF: KNEW 162334Z 1700/1724 03006KT P6SM OVC007 FM170800 00000KT 1SM BR BKN003 FM170900 00000KT 1/4SM FG OVC003 FM171300 VRB03KT 2SM BR OVC003 FM172000 VRB04KT P6SM BKN008

超过4000个机场的气象观测和天气预报(METAR&TAF报告)。

可查询的气象台以黄色和红色小点在地图上表示。

将鼠标移到小点上方,可查看气象台名称。

然后点击查看天气观测和预报。

如需切换地图:点击带黑十字的绿色按钮放大地图;点击带横线的绿色按钮缩小地图;或者点击绿色箭头查看邻近地区的地图。


METAR-TAF: